createdAt,value
2022-10-07T00:01:41.443Z,4.90
2022-10-07T00:04:14.007Z,4.97
2022-10-07T00:06:43.897Z,5.72
2022-10-07T00:09:16.621Z,4.30
2022-10-07T00:11:47.049Z,4.63
2022-10-07T00:14:16.571Z,4.28
2022-10-07T00:16:47.140Z,5.05
2022-10-07T00:19:16.672Z,4.53
2022-10-07T00:21:46.108Z,4.70
2022-10-07T00:24:16.783Z,4.20
2022-10-07T00:26:47.262Z,4.30
2022-10-07T00:29:17.051Z,4.22
2022-10-07T00:31:46.965Z,4.07
2022-10-07T00:34:16.153Z,4.60
2022-10-07T00:36:50.798Z,4.88
2022-10-07T00:39:21.483Z,3.88
2022-10-07T00:41:54.037Z,4.57
2022-10-07T00:44:39.311Z,4.50
2022-10-07T00:47:15.629Z,4.47
2022-10-07T00:49:50.718Z,4.53
2022-10-07T00:52:21.946Z,5.18
2022-10-07T00:55:00.276Z,3.80
2022-10-07T00:57:35.953Z,4.20
2022-10-07T01:00:07.187Z,3.45
2022-10-07T01:02:38.667Z,3.92
2022-10-07T01:05:14.363Z,3.63
2022-10-07T01:07:47.950Z,3.55
2022-10-07T01:10:23.042Z,3.70
2022-10-07T01:13:08.611Z,3.50
2022-10-07T01:15:44.262Z,3.42
2022-10-07T01:18:19.905Z,3.13
2022-10-07T01:20:55.186Z,3.40
2022-10-07T01:26:41.397Z,2.88
2022-10-07T01:29:16.603Z,2.70
2022-10-07T01:34:19.849Z,3.30
2022-10-07T01:36:57.903Z,3.55
2022-10-07T01:39:31.553Z,3.17
2022-10-07T01:42:02.232Z,3.28
2022-10-07T01:44:33.032Z,3.35
2022-10-07T01:47:02.598Z,3.92
2022-10-07T01:49:32.277Z,4.28
2022-10-07T01:52:26.421Z,3.45
2022-10-07T01:55:35.276Z,3.47
2022-10-07T01:58:18.742Z,3.85
2022-10-07T02:00:59.441Z,3.55
2022-10-07T02:03:44.154Z,3.28
2022-10-07T02:06:25.698Z,3.40
2022-10-07T02:08:56.972Z,3.53
2022-10-07T02:11:36.850Z,3.33
2022-10-07T02:14:13.219Z,4.78
2022-10-07T02:16:47.243Z,3.38
2022-10-07T02:19:35.669Z,4.13
2022-10-07T02:22:05.526Z,3.60
2022-10-07T02:24:39.806Z,3.95
2022-10-07T02:27:15.278Z,3.95
2022-10-07T02:29:50.432Z,2.88
2022-10-07T02:32:24.854Z,3.25
2022-10-07T02:35:03.318Z,3.87
2022-10-07T02:37:37.985Z,3.47
2022-10-07T02:40:12.160Z,3.67
2022-10-07T02:42:52.667Z,3.50
2022-10-07T02:45:29.495Z,3.80
2022-10-07T02:48:09.715Z,3.15
2022-10-07T02:50:44.475Z,3.40
2022-10-07T02:53:15.318Z,3.67
2022-10-07T02:55:47.463Z,3.45
2022-10-07T02:58:18.580Z,3.60
2022-10-07T03:00:53.632Z,3.55
2022-10-07T03:03:26.428Z,3.78
2022-10-07T03:06:02.379Z,3.65
2022-10-07T03:08:33.476Z,3.53
2022-10-07T03:11:04.084Z,3.78
2022-10-07T03:13:35.336Z,4.05
2022-10-07T03:17:21.611Z,3.45
2022-10-07T03:20:14.346Z,4.05
2022-10-07T03:22:47.204Z,4.00
2022-10-07T03:25:20.070Z,3.08
2022-10-07T03:27:50.044Z,3.63
2022-10-07T03:30:24.348Z,3.45
2022-10-07T03:32:58.243Z,3.55
2022-10-07T03:35:33.501Z,3.00
2022-10-07T03:38:02.732Z,2.80
2022-10-07T03:40:33.573Z,3.25
2022-10-07T03:43:04.627Z,3.35
2022-10-07T03:45:37.536Z,3.05
2022-10-07T03:48:07.122Z,3.60
2022-10-07T03:50:40.165Z,3.22
2022-10-07T03:53:12.770Z,3.67
2022-10-07T03:55:42.183Z,3.58
2022-10-07T03:58:12.016Z,3.08
2022-10-07T04:00:42.159Z,2.70
2022-10-07T04:03:11.737Z,2.72
2022-10-07T04:05:45.594Z,2.60
2022-10-07T04:08:17.522Z,2.58
2022-10-07T04:10:47.654Z,2.85
2022-10-07T04:13:17.181Z,2.97
2022-10-07T04:15:47.514Z,3.47
2022-10-07T04:18:17.412Z,2.78
2022-10-07T04:20:48.873Z,2.60
2022-10-07T04:23:19.761Z,2.97
2022-10-07T04:25:49.978Z,2.97
2022-10-07T04:28:28.345Z,2.55
2022-10-07T04:31:08.957Z,2.83
2022-10-07T04:36:18.016Z,2.47
2022-10-07T04:39:09.055Z,2.45
2022-10-07T04:41:46.116Z,2.53
2022-10-07T04:44:24.759Z,2.60
2022-10-07T04:47:01.421Z,2.50
2022-10-07T04:49:33.542Z,2.72
2022-10-07T04:52:08.539Z,2.20
2022-10-07T04:58:33.418Z,2.78
2022-10-07T05:01:30.322Z,1.90
2022-10-07T05:04:04.342Z,2.95
2022-10-07T05:06:36.926Z,2.60
2022-10-07T05:09:11.663Z,2.50
2022-10-07T05:12:11.191Z,2.42
2022-10-07T05:14:43.233Z,2.17
2022-10-07T05:17:19.184Z,2.05
2022-10-07T05:19:48.816Z,2.78
2022-10-07T05:22:20.860Z,1.55
2022-10-07T05:24:56.100Z,1.85
2022-10-07T05:27:26.608Z,1.83
2022-10-07T05:29:56.925Z,1.85
2022-10-07T05:32:47.478Z,1.98
2022-10-07T05:35:36.393Z,1.70
2022-10-07T05:38:07.423Z,1.88
2022-10-07T05:40:38.896Z,1.92
2022-10-07T05:43:14.269Z,2.03
2022-10-07T05:45:45.216Z,1.70
2022-10-07T05:48:16.211Z,1.98
2022-10-07T05:51:06.559Z,1.80
2022-10-07T05:53:59.474Z,1.75
2022-10-07T05:56:51.419Z,1.70
2022-10-07T05:59:24.397Z,1.52
2022-10-07T06:01:57.845Z,1.60
2022-10-07T06:04:29.664Z,1.33
2022-10-07T06:07:05.640Z,1.70
2022-10-07T06:09:53.616Z,1.67
2022-10-07T06:12:44.829Z,1.63
2022-10-07T06:15:16.784Z,1.45
2022-10-07T06:17:51.671Z,1.40
2022-10-07T06:20:26.216Z,1.73
2022-10-07T06:22:58.795Z,1.52
2022-10-07T06:26:20.000Z,2.05
2022-10-07T06:28:51.792Z,1.77
2022-10-07T06:31:25.264Z,2.00
2022-10-07T06:34:00.981Z,2.30
2022-10-07T06:36:35.522Z,1.83
2022-10-07T06:39:05.914Z,1.80
2022-10-07T06:41:41.642Z,1.58
2022-10-07T06:44:37.676Z,1.75
2022-10-07T06:47:11.714Z,1.58
2022-10-07T06:49:46.342Z,1.05
2022-10-07T06:52:16.761Z,1.80
2022-10-07T06:54:51.288Z,1.38
2022-10-07T06:57:44.404Z,1.55
2022-10-07T07:00:14.832Z,1.58
2022-10-07T07:02:46.137Z,1.60
2022-10-07T07:05:17.026Z,1.65
2022-10-07T07:07:49.707Z,1.45
2022-10-07T07:10:23.544Z,1.83
2022-10-07T07:12:55.546Z,1.50
2022-10-07T07:15:26.817Z,2.20
2022-10-07T07:17:56.871Z,1.25
2022-10-07T07:20:26.692Z,1.70
2022-10-07T07:22:56.199Z,1.38
2022-10-07T07:25:28.007Z,1.13
2022-10-07T07:28:01.028Z,2.00
2022-10-07T07:30:32.744Z,1.40
2022-10-07T07:33:04.451Z,1.25
2022-10-07T07:36:26.799Z,1.52
2022-10-07T07:39:00.207Z,1.45
2022-10-07T07:41:33.373Z,1.10
2022-10-07T07:44:05.960Z,1.27
2022-10-07T07:46:40.365Z,1.00
2022-10-07T07:49:13.850Z,1.00
2022-10-07T07:51:45.627Z,0.95
2022-10-07T07:54:21.869Z,0.93
2022-10-07T07:56:52.512Z,1.20
2022-10-07T07:59:25.078Z,1.00
2022-10-07T08:01:57.350Z,1.17
2022-10-07T08:04:27.776Z,1.10
2022-10-07T08:06:58.445Z,1.50
2022-10-07T08:09:32.055Z,1.15
2022-10-07T08:12:02.353Z,1.27
2022-10-07T08:14:38.823Z,1.30
2022-10-07T08:17:12.303Z,1.23
2022-10-07T08:19:42.640Z,1.05
2022-10-07T08:22:22.996Z,1.33
2022-10-07T08:25:00.609Z,1.00
2022-10-07T08:27:35.673Z,1.67
2022-10-07T08:30:16.942Z,1.00
2022-10-07T08:33:00.363Z,0.98
2022-10-07T08:35:50.725Z,1.15
2022-10-07T08:38:40.031Z,1.80
2022-10-07T08:42:02.929Z,0.80
2022-10-07T08:44:41.179Z,0.93
2022-10-07T08:47:20.628Z,1.25
2022-10-07T08:50:02.411Z,1.00
2022-10-07T08:52:43.516Z,1.15
2022-10-07T08:55:33.496Z,1.50
2022-10-07T08:58:31.160Z,1.20
2022-10-07T09:01:07.647Z,1.10
2022-10-07T09:03:50.264Z,1.63
2022-10-07T09:06:36.140Z,1.10
2022-10-07T09:09:18.839Z,1.05
2022-10-07T09:11:51.604Z,1.40
2022-10-07T09:14:42.586Z,1.30
2022-10-07T09:17:21.888Z,1.30
2022-10-07T09:20:00.921Z,1.27
2022-10-07T09:22:40.707Z,1.30
2022-10-07T09:25:24.083Z,1.35
2022-10-07T09:28:02.469Z,1.05
2022-10-07T09:30:56.507Z,1.52
2022-10-07T09:33:43.867Z,1.23
2022-10-07T09:36:19.801Z,1.20
2022-10-07T09:38:57.960Z,2.03
2022-10-07T09:41:35.598Z,1.20
2022-10-07T09:44:47.375Z,1.00
2022-10-07T09:47:38.268Z,1.20
2022-10-07T09:50:37.813Z,1.10
2022-10-07T09:53:31.381Z,1.35
2022-10-07T09:56:31.912Z,0.90
2022-10-07T09:59:19.242Z,1.05
2022-10-07T10:01:56.872Z,1.02
2022-10-07T10:04:35.729Z,1.20
2022-10-07T10:07:07.841Z,1.02
2022-10-07T10:09:41.393Z,1.02
2022-10-07T10:16:51.075Z,2.03
2022-10-07T10:19:51.385Z,1.15
2022-10-07T10:27:18.239Z,1.95
2022-10-07T10:31:17.936Z,1.15
2022-10-07T10:34:07.939Z,1.15
2022-10-07T10:36:56.575Z,1.38
2022-10-07T10:39:46.209Z,1.23
2022-10-07T10:42:35.464Z,1.20
2022-10-07T10:49:47.136Z,1.15
2022-10-07T10:53:12.874Z,1.50
2022-10-07T10:56:00.406Z,1.00
2022-10-07T10:59:17.944Z,1.33
2022-10-07T11:01:56.401Z,1.50
2022-10-07T11:05:03.364Z,0.90
2022-10-07T11:08:01.417Z,0.88
2022-10-07T11:10:45.368Z,0.95
2022-10-07T11:13:29.724Z,1.20
2022-10-07T11:16:24.684Z,1.08
2022-10-07T11:19:33.859Z,1.20
2022-10-07T11:23:18.715Z,1.00
2022-10-07T11:26:08.948Z,1.05
2022-10-07T11:28:42.605Z,0.80
2022-10-07T11:31:42.839Z,1.00
2022-10-07T11:34:23.390Z,1.25
2022-10-07T11:37:00.931Z,1.40
2022-10-07T11:39:45.871Z,1.27
2022-10-07T11:43:08.859Z,1.27
2022-10-07T11:45:54.126Z,1.00
2022-10-07T11:48:51.474Z,1.08
2022-10-07T11:51:26.515Z,0.98
2022-10-07T11:54:00.157Z,0.88
2022-10-07T11:56:39.996Z,1.20
2022-10-07T11:59:54.162Z,1.33
2022-10-07T12:02:49.946Z,1.20
2022-10-07T12:06:02.101Z,0.80
2022-10-07T12:08:36.236Z,1.00
2022-10-07T12:11:46.073Z,1.27
2022-10-07T12:14:43.758Z,1.08
2022-10-07T12:17:28.355Z,1.75
2022-10-07T12:20:37.441Z,1.30
2022-10-07T12:24:00.633Z,1.30
2022-10-07T12:26:52.303Z,1.10
2022-10-07T12:29:59.016Z,0.93
2022-10-07T12:33:18.622Z,1.05
2022-10-07T12:35:54.596Z,1.10
2022-10-07T12:38:31.260Z,1.00
2022-10-07T12:41:23.646Z,0.88
2022-10-07T12:44:02.787Z,1.20
2022-10-07T12:46:40.261Z,2.00
2022-10-07T12:49:19.479Z,1.20
2022-10-07T12:51:51.950Z,1.10
2022-10-07T12:54:24.718Z,1.20
2022-10-07T12:56:55.209Z,1.10
2022-10-07T12:59:48.916Z,1.27
2022-10-07T13:03:11.827Z,1.02
2022-10-07T13:06:22.882Z,1.58
2022-10-07T13:09:36.264Z,1.55
2022-10-07T13:12:26.419Z,1.40
2022-10-07T13:15:09.667Z,1.20
2022-10-07T13:17:49.418Z,0.90
2022-10-07T13:20:32.942Z,1.25
2022-10-07T13:23:17.073Z,1.30
2022-10-07T13:25:57.423Z,1.65
2022-10-07T13:28:32.908Z,1.65
2022-10-07T13:31:16.436Z,0.95
2022-10-07T13:33:49.513Z,1.00
2022-10-07T13:36:24.997Z,1.33
2022-10-07T13:39:12.756Z,1.33
2022-10-07T13:41:47.502Z,1.33
2022-10-07T13:44:20.869Z,1.15
2022-10-07T13:47:01.422Z,1.10
2022-10-07T13:49:43.105Z,1.27
2022-10-07T13:52:30.080Z,1.63
2022-10-07T13:55:48.594Z,1.30
2022-10-07T13:58:25.000Z,1.50
2022-10-07T14:01:00.950Z,0.93
2022-10-07T14:03:39.385Z,1.40
2022-10-07T14:06:53.874Z,0.90
2022-10-07T14:09:36.038Z,1.40
2022-10-07T14:12:19.368Z,1.75
2022-10-07T14:15:04.064Z,1.40
2022-10-07T14:17:49.039Z,1.30
2022-10-07T14:20:30.376Z,1.25
2022-10-07T14:23:41.448Z,1.00
2022-10-07T14:26:57.639Z,1.95
2022-10-07T14:30:58.737Z,1.27
2022-10-07T14:34:04.258Z,1.13
2022-10-07T14:36:41.427Z,1.40
2022-10-07T14:39:34.078Z,1.30
2022-10-07T14:42:20.109Z,1.27
2022-10-07T14:44:56.446Z,1.00
2022-10-07T14:47:32.203Z,1.13
2022-10-07T14:50:24.146Z,1.33
2022-10-07T14:53:18.495Z,1.20
2022-10-07T14:56:00.050Z,1.42
2022-10-07T14:58:42.110Z,1.75
2022-10-07T15:01:22.547Z,1.17
2022-10-07T15:04:31.689Z,1.30
2022-10-07T15:07:15.413Z,1.83
2022-10-07T15:09:56.337Z,1.40
2022-10-07T15:12:45.646Z,1.38
2022-10-07T15:15:19.632Z,1.40
2022-10-07T15:17:50.818Z,1.63
2022-10-07T15:20:21.405Z,2.03
2022-10-07T15:22:53.195Z,1.52
2022-10-07T15:25:26.081Z,1.40
2022-10-07T15:28:01.192Z,1.50
2022-10-07T15:30:36.883Z,1.48
2022-10-07T15:33:08.839Z,1.40
2022-10-07T15:35:38.973Z,1.52
2022-10-07T15:38:10.096Z,1.77
2022-10-07T15:41:00.300Z,1.90
2022-10-07T15:43:35.294Z,1.75
2022-10-07T15:46:09.206Z,1.85
2022-10-07T15:52:25.357Z,1.60
2022-10-07T15:55:02.577Z,1.83
2022-10-07T15:57:52.170Z,1.65
2022-10-07T16:06:00.825Z,1.63
2022-10-07T16:08:37.423Z,1.55
2022-10-07T16:11:51.988Z,1.73
2022-10-07T16:14:26.030Z,2.30
2022-10-07T16:17:04.775Z,1.60
2022-10-07T16:19:50.852Z,1.98
2022-10-07T16:26:38.841Z,1.60
2022-10-07T16:29:32.404Z,1.95
2022-10-07T16:32:18.817Z,1.33
2022-10-07T16:35:08.206Z,2.22
2022-10-07T16:40:59.211Z,1.53
2022-10-07T16:43:57.429Z,1.75
2022-10-07T16:46:33.070Z,1.95
2022-10-07T16:49:09.423Z,1.52
2022-10-07T16:52:07.566Z,1.70
2022-10-07T16:54:45.679Z,1.67
2022-10-07T16:58:11.028Z,1.75
2022-10-07T17:04:46.053Z,1.70
2022-10-07T17:07:21.709Z,1.10
2022-10-07T17:09:56.203Z,1.67
2022-10-07T17:12:34.302Z,1.90
2022-10-07T17:15:17.659Z,1.88
2022-10-07T17:17:58.469Z,1.52
2022-10-07T17:21:05.356Z,1.35
2022-10-07T17:23:52.202Z,1.27
2022-10-07T17:26:31.000Z,1.77
2022-10-07T17:29:50.055Z,1.35
2022-10-07T17:32:31.285Z,1.83
2022-10-07T17:40:05.853Z,1.52
2022-10-07T17:46:56.461Z,1.40
2022-10-07T17:50:02.254Z,2.40
2022-10-07T17:52:53.617Z,1.42
2022-10-07T17:56:05.785Z,1.80
2022-10-07T17:58:57.587Z,1.40
2022-10-07T18:01:49.918Z,1.45
2022-10-07T18:05:00.614Z,1.40
2022-10-07T18:08:54.596Z,2.10
2022-10-07T18:16:55.163Z,1.48
2022-10-07T18:20:51.503Z,2.35
2022-10-07T18:35:08.137Z,1.33
2022-10-07T18:38:17.109Z,1.40
2022-10-07T18:40:53.541Z,2.20
2022-10-07T18:43:28.456Z,1.50
2022-10-07T18:46:09.066Z,1.52
2022-10-07T18:48:48.642Z,1.88
2022-10-07T18:51:22.295Z,2.25
2022-10-07T18:53:54.060Z,1.48
2022-10-07T18:56:30.197Z,1.70
2022-10-07T18:59:02.214Z,1.38
2022-10-07T19:01:33.113Z,1.83
2022-10-07T19:04:13.173Z,1.65
2022-10-07T19:06:46.684Z,1.63
2022-10-07T19:09:21.617Z,1.83
2022-10-07T19:11:56.995Z,1.60
2022-10-07T19:19:44.501Z,1.85
2022-10-07T19:22:30.613Z,1.40
2022-10-07T19:25:36.887Z,2.20
2022-10-07T19:28:22.528Z,1.65
2022-10-07T19:35:12.185Z,1.95
2022-10-07T19:37:47.101Z,1.70
2022-10-07T19:43:11.878Z,2.00
2022-10-07T19:45:44.422Z,1.73
2022-10-07T19:48:27.724Z,2.00
2022-10-07T19:51:03.581Z,2.30
2022-10-07T19:53:37.883Z,3.03
2022-10-07T19:56:15.957Z,2.13
2022-10-07T19:58:50.966Z,1.52
2022-10-07T20:01:25.153Z,1.95
2022-10-07T20:03:59.503Z,2.42
2022-10-07T20:06:38.706Z,1.60
2022-10-07T20:09:13.792Z,2.03
2022-10-07T20:11:44.653Z,1.92
2022-10-07T20:14:16.434Z,1.60
2022-10-07T20:16:47.802Z,1.90
2022-10-07T20:19:19.874Z,1.55
2022-10-07T20:22:08.600Z,2.10
2022-10-07T20:25:04.900Z,2.40
2022-10-07T20:27:52.930Z,1.75
2022-10-07T20:30:33.982Z,2.30
2022-10-07T20:33:08.480Z,1.75
2022-10-07T20:35:47.484Z,2.03
2022-10-07T20:38:24.704Z,2.65
2022-10-07T20:41:15.675Z,1.80
2022-10-07T20:44:38.174Z,2.50
2022-10-07T20:47:11.347Z,2.20
2022-10-07T20:49:47.229Z,3.20
2022-10-07T20:52:28.282Z,2.67
2022-10-07T20:56:19.479Z,1.90
2022-10-07T20:59:10.288Z,2.03
2022-10-07T21:01:49.661Z,2.20
2022-10-07T21:04:29.615Z,2.00
2022-10-07T21:07:05.649Z,2.00
2022-10-07T21:09:45.965Z,2.42
2022-10-07T21:12:19.975Z,2.13
2022-10-07T21:15:01.405Z,2.78
2022-10-07T21:17:36.506Z,2.53
2022-10-07T21:20:09.926Z,2.33
2022-10-07T21:22:42.045Z,2.20
2022-10-07T21:25:13.986Z,2.08
2022-10-07T21:27:49.973Z,2.53
2022-10-07T21:30:25.111Z,1.90
2022-10-07T21:33:00.256Z,2.72
2022-10-07T21:35:35.183Z,2.13
2022-10-07T21:38:09.415Z,2.80
2022-10-07T21:40:45.278Z,2.55
2022-10-07T21:43:19.680Z,2.33
2022-10-07T21:46:02.577Z,2.20
2022-10-07T21:48:32.522Z,2.60
2022-10-07T21:51:08.584Z,2.38
2022-10-07T21:57:34.316Z,2.33
2022-10-07T22:00:04.416Z,2.38
2022-10-07T22:02:43.598Z,2.63
2022-10-07T22:05:16.787Z,2.30
2022-10-07T22:08:04.813Z,2.78
2022-10-07T22:10:34.912Z,2.95
2022-10-07T22:13:06.065Z,2.67
2022-10-07T22:15:37.181Z,2.83
2022-10-07T22:18:08.483Z,2.70
2022-10-07T22:20:40.806Z,2.95
2022-10-07T22:23:14.166Z,2.58
2022-10-07T22:25:46.311Z,3.55
2022-10-07T22:28:16.368Z,3.03
2022-10-07T22:30:46.699Z,3.28
2022-10-07T22:33:18.266Z,3.20
2022-10-07T22:35:51.264Z,3.55
2022-10-07T22:38:25.603Z,3.50
2022-10-07T22:40:57.084Z,3.50
2022-10-07T22:43:32.836Z,2.88
2022-10-07T22:46:07.535Z,3.75
2022-10-07T22:48:45.679Z,3.47
2022-10-07T22:51:18.225Z,3.50
2022-10-07T22:53:53.431Z,3.30
2022-10-07T22:56:28.214Z,3.03
2022-10-07T22:59:03.087Z,3.55
2022-10-07T23:01:33.510Z,3.50
2022-10-07T23:04:06.389Z,2.97
2022-10-07T23:06:37.731Z,3.20
2022-10-07T23:09:08.135Z,3.78
2022-10-07T23:11:39.074Z,3.05
2022-10-07T23:14:09.588Z,3.55
2022-10-07T23:16:38.938Z,3.47
2022-10-07T23:19:12.803Z,3.60
2022-10-07T23:21:42.004Z,4.30
2022-10-07T23:24:16.013Z,3.60
2022-10-07T23:26:45.973Z,3.63
2022-10-07T23:29:15.720Z,3.50
2022-10-07T23:31:46.111Z,4.00
2022-10-07T23:34:18.778Z,3.60
2022-10-07T23:36:47.970Z,4.00
2022-10-07T23:39:17.187Z,4.38
2022-10-07T23:41:46.393Z,3.35
2022-10-07T23:44:16.565Z,4.03
2022-10-07T23:46:47.694Z,4.35
2022-10-07T23:49:19.183Z,3.95
2022-10-07T23:51:49.018Z,3.60
2022-10-07T23:54:20.761Z,3.55
2022-10-07T23:56:50.558Z,4.30
2022-10-07T23:59:20.002Z,4.25
